sensor_id;sensor_type;location;lat;lon;timestamp;temperature;humidity
26947;DHT22;14501;52.282;10.560;2023-05-10T00:00:47;13.20;98.10
26947;DHT22;14501;52.282;10.560;2023-05-10T00:03:12;13.20;98.50
26947;DHT22;14501;52.282;10.560;2023-05-10T00:05:38;13.10;98.70
26947;DHT22;14501;52.282;10.560;2023-05-10T00:08:04;12.90;99.10
26947;DHT22;14501;52.282;10.560;2023-05-10T00:10:29;12.80;99.90
26947;DHT22;14501;52.282;10.560;2023-05-10T00:12:55;12.70;99.90
26947;DHT22;14501;52.282;10.560;2023-05-10T00:15:21;12.60;99.90
26947;DHT22;14501;52.282;10.560;2023-05-10T00:17:47;12.60;99.90
26947;DHT22;14501;52.282;10.560;2023-05-10T00:20:12;12.60;99.90
26947;DHT22;14501;52.282;10.560;2023-05-10T00:22:38;12.60;99.90
26947;DHT22;14501;52.282;10.560;2023-05-10T00:25:04;12.60;99.90
26947;DHT22;14501;52.282;10.560;2023-05-10T00:27:30;12.50;99.90
26947;DHT22;14501;52.282;10.560;2023-05-10T00:29:55;12.40;99.90
26947;DHT22;14501;52.282;10.560;2023-05-10T00:32:21;12.50;99.90
26947;DHT22;14501;52.282;10.560;2023-05-10T00:34:46;12.50;99.90
26947;DHT22;14501;52.282;10.560;2023-05-10T00:37:12;12.50;99.90
26947;DHT22;14501;52.282;10.560;2023-05-10T00:39:37;12.60;99.90
26947;DHT22;14501;52.282;10.560;2023-05-10T00:42:03;12.60;99.90
26947;DHT22;14501;52.282;10.560;2023-05-10T00:44:29;12.70;99.90
26947;DHT22;14501;52.282;10.560;2023-05-10T00:46:57;12.70;99.90
26947;DHT22;14501;52.282;10.560;2023-05-10T00:49:23;12.70;99.90
26947;DHT22;14501;52.282;10.560;2023-05-10T00:51:49;12.80;99.90
26947;DHT22;14501;52.282;10.560;2023-05-10T00:54:15;12.80;99.90
26947;DHT22;14501;52.282;10.560;2023-05-10T00:56:41;12.70;99.90
26947;DHT22;14501;52.282;10.560;2023-05-10T00:59:09;12.70;99.90
26947;DHT22;14501;52.282;10.560;2023-05-10T01:01:35;12.80;99.90
26947;DHT22;14501;52.282;10.560;2023-05-10T01:04:01;12.80;99.90
26947;DHT22;14501;52.282;10.560;2023-05-10T01:06:28;12.90;99.90
26947;DHT22;14501;52.282;10.560;2023-05-10T01:08:54;12.90;99.90
26947;DHT22;14501;52.282;10.560;2023-05-10T01:11:21;13.10;99.90
26947;DHT22;14501;52.282;10.560;2023-05-10T01:13:52;13.10;99.90
26947;DHT22;14501;52.282;10.560;2023-05-10T01:16:20;13.10;99.90
26947;DHT22;14501;52.282;10.560;2023-05-10T01:18:46;13.10;99.90
26947;DHT22;14501;52.282;10.560;2023-05-10T01:21:30;13.10;99.90
26947;DHT22;14501;52.282;10.560;2023-05-10T01:30:08;13.00;99.90
26947;DHT22;14501;52.282;10.560;2023-05-10T01:35:26;12.90;99.90
26947;DHT22;14501;52.282;10.560;2023-05-10T01:40:42;12.60;99.90
26947;DHT22;14501;52.282;10.560;2023-05-10T01:43:21;12.50;99.90
26947;DHT22;14501;52.282;10.560;2023-05-10T01:46:05;12.40;99.90
26947;DHT22;14501;52.282;10.560;2023-05-10T01:48:47;12.50;99.90
26947;DHT22;14501;52.282;10.560;2023-05-10T01:51:21;12.50;99.90
26947;DHT22;14501;52.282;10.560;2023-05-10T01:53:48;12.50;99.90
26947;DHT22;14501;52.282;10.560;2023-05-10T01:56:15;12.60;99.90
26947;DHT22;14501;52.282;10.560;2023-05-10T01:58:43;12.70;99.90
26947;DHT22;14501;52.282;10.560;2023-05-10T02:01:11;12.80;99.90
26947;DHT22;14501;52.282;10.560;2023-05-10T02:03:38;12.90;99.90
26947;DHT22;14501;52.282;10.560;2023-05-10T02:06:14;12.90;99.90
26947;DHT22;14501;52.282;10.560;2023-05-10T02:08:43;12.90;99.90
26947;DHT22;14501;52.282;10.560;2023-05-10T02:11:13;13.00;99.90
26947;DHT22;14501;52.282;10.560;2023-05-10T02:13:39;13.00;99.90
26947;DHT22;14501;52.282;10.560;2023-05-10T02:16:09;13.00;99.90
26947;DHT22;14501;52.282;10.560;2023-05-10T02:18:36;13.00;99.90
26947;DHT22;14501;52.282;10.560;2023-05-10T02:21:02;12.90;99.90
26947;DHT22;14501;52.282;10.560;2023-05-10T02:23:29;12.90;99.90
26947;DHT22;14501;52.282;10.560;2023-05-10T02:25:56;12.90;99.90
26947;DHT22;14501;52.282;10.560;2023-05-10T02:28:24;12.90;99.90
26947;DHT22;14501;52.282;10.560;2023-05-10T02:30:51;13.70;99.90
26947;DHT22;14501;52.282;10.560;2023-05-10T02:33:19;12.80;99.90
26947;DHT22;14501;52.282;10.560;2023-05-10T02:35:46;12.80;99.90
26947;DHT22;14501;52.282;10.560;2023-05-10T02:38:13;12.70;99.90
26947;DHT22;14501;52.282;10.560;2023-05-10T02:40:41;12.50;99.90
26947;DHT22;14501;52.282;10.560;2023-05-10T02:43:13;12.40;99.90
26947;DHT22;14501;52.282;10.560;2023-05-10T02:45:40;12.30;99.90
26947;DHT22;14501;52.282;10.560;2023-05-10T02:48:07;12.30;99.90
26947;DHT22;14501;52.282;10.560;2023-05-10T02:50:33;12.10;99.90
26947;DHT22;14501;52.282;10.560;2023-05-10T02:53:02;12.00;99.90
26947;DHT22;14501;52.282;10.560;2023-05-10T02:55:33;12.00;99.90
26947;DHT22;14501;52.282;10.560;2023-05-10T02:58:01;11.80;99.90
26947;DHT22;14501;52.282;10.560;2023-05-10T03:00:28;11.60;99.90
26947;DHT22;14501;52.282;10.560;2023-05-10T03:02:53;11.70;99.90
26947;DHT22;14501;52.282;10.560;2023-05-10T03:05:19;11.70;99.90
26947;DHT22;14501;52.282;10.560;2023-05-10T03:07:45;11.60;99.90
26947;DHT22;14501;52.282;10.560;2023-05-10T03:10:12;11.60;99.90
26947;DHT22;14501;52.282;10.560;2023-05-10T03:15:51;11.50;99.90
26947;DHT22;14501;52.282;10.560;2023-05-10T03:18:23;11.40;99.90
26947;DHT22;14501;52.282;10.560;2023-05-10T03:20:57;11.30;99.90
26947;DHT22;14501;52.282;10.560;2023-05-10T03:23:30;11.30;99.90
26947;DHT22;14501;52.282;10.560;2023-05-10T03:25:58;11.30;99.90
26947;DHT22;14501;52.282;10.560;2023-05-10T03:28:25;11.30;99.90
26947;DHT22;14501;52.282;10.560;2023-05-10T03:30:53;11.30;99.90
26947;DHT22;14501;52.282;10.560;2023-05-10T03:33:20;11.30;99.90
26947;DHT22;14501;52.282;10.560;2023-05-10T03:35:46;11.30;99.90
26947;DHT22;14501;52.282;10.560;2023-05-10T03:38:14;11.30;99.90
26947;DHT22;14501;52.282;10.560;2023-05-10T03:40:40;11.30;99.90
26947;DHT22;14501;52.282;10.560;2023-05-10T03:43:06;11.30;99.90
26947;DHT22;14501;52.282;10.560;2023-05-10T03:45:31;11.40;99.90
26947;DHT22;14501;52.282;10.560;2023-05-10T03:47:57;11.40;99.90
26947;DHT22;14501;52.282;10.560;2023-05-10T03:50:23;11.50;99.90
26947;DHT22;14501;52.282;10.560;2023-05-10T03:52:49;11.40;99.90
26947;DHT22;14501;52.282;10.560;2023-05-10T03:55:15;11.40;99.90
26947;DHT22;14501;52.282;10.560;2023-05-10T03:57:42;11.40;99.90
26947;DHT22;14501;52.282;10.560;2023-05-10T04:00:08;11.40;99.90
26947;DHT22;14501;52.282;10.560;2023-05-10T04:02:34;11.50;99.90
26947;DHT22;14501;52.282;10.560;2023-05-10T04:04:59;11.50;99.90
26947;DHT22;14501;52.282;10.560;2023-05-10T04:07:25;11.60;99.90
26947;DHT22;14501;52.282;10.560;2023-05-10T04:09:51;11.70;99.90
26947;DHT22;14501;52.282;10.560;2023-05-10T04:12:16;11.70;99.90
26947;DHT22;14501;52.282;10.560;2023-05-10T04:14:42;11.80;99.90
26947;DHT22;14501;52.282;10.560;2023-05-10T04:17:08;11.10;99.90
26947;DHT22;14501;52.282;10.560;2023-05-10T04:19:33;11.90;99.90
26947;DHT22;14501;52.282;10.560;2023-05-10T04:21:59;12.00;99.90
26947;DHT22;14501;52.282;10.560;2023-05-10T04:24:25;12.10;99.90
26947;DHT22;14501;52.282;10.560;2023-05-10T04:26:51;12.30;99.90
26947;DHT22;14501;52.282;10.560;2023-05-10T04:29:16;12.40;99.90
26947;DHT22;14501;52.282;10.560;2023-05-10T04:31:42;12.50;99.90
26947;DHT22;14501;52.282;10.560;2023-05-10T04:34:08;12.60;99.90
26947;DHT22;14501;52.282;10.560;2023-05-10T04:36:33;12.60;99.90
26947;DHT22;14501;52.282;10.560;2023-05-10T04:39:01;12.60;99.90
26947;DHT22;14501;52.282;10.560;2023-05-10T04:41:28;12.70;99.90
26947;DHT22;14501;52.282;10.560;2023-05-10T04:43:54;12.70;99.90
26947;DHT22;14501;52.282;10.560;2023-05-10T04:46:20;12.70;99.90
26947;DHT22;14501;52.282;10.560;2023-05-10T04:48:46;12.70;99.90
26947;DHT22;14501;52.282;10.560;2023-05-10T04:51:11;12.60;99.90
26947;DHT22;14501;52.282;10.560;2023-05-10T04:53:37;12.60;99.90
26947;DHT22;14501;52.282;10.560;2023-05-10T04:56:03;12.60;99.90
26947;DHT22;14501;52.282;10.560;2023-05-10T04:58:29;12.60;99.90
26947;DHT22;14501;52.282;10.560;2023-05-10T05:00:54;12.60;99.90
26947;DHT22;14501;52.282;10.560;2023-05-10T05:03:20;12.60;99.90
26947;DHT22;14501;52.282;10.560;2023-05-10T05:05:46;12.60;99.90
26947;DHT22;14501;52.282;10.560;2023-05-10T05:08:11;12.60;99.90
26947;DHT22;14501;52.282;10.560;2023-05-10T05:10:38;12.20;99.90
26947;DHT22;14501;52.282;10.560;2023-05-10T05:13:03;12.50;99.90
26947;DHT22;14501;52.282;10.560;2023-05-10T05:15:29;12.50;99.90
26947;DHT22;14501;52.282;10.560;2023-05-10T05:17:56;12.50;99.90
26947;DHT22;14501;52.282;10.560;2023-05-10T05:20:21;12.40;99.90
26947;DHT22;14501;52.282;10.560;2023-05-10T05:22:47;12.40;99.90
26947;DHT22;14501;52.282;10.560;2023-05-10T05:25:13;12.40;99.90
26947;DHT22;14501;52.282;10.560;2023-05-10T05:27:39;12.40;99.90
26947;DHT22;14501;52.282;10.560;2023-05-10T05:30:05;12.40;99.90
26947;DHT22;14501;52.282;10.560;2023-05-10T05:32:31;12.30;99.90
26947;DHT22;14501;52.282;10.560;2023-05-10T05:34:57;12.30;99.90
26947;DHT22;14501;52.282;10.560;2023-05-10T05:37:23;12.30;99.90
26947;DHT22;14501;52.282;10.560;2023-05-10T05:39:50;12.30;99.90
26947;DHT22;14501;52.282;10.560;2023-05-10T05:42:24;12.30;99.90
26947;DHT22;14501;52.282;10.560;2023-05-10T05:44:53;12.30;99.90
26947;DHT22;14501;52.282;10.560;2023-05-10T05:47:19;12.30;99.90
26947;DHT22;14501;52.282;10.560;2023-05-10T05:49:45;12.30;99.90
26947;DHT22;14501;52.282;10.560;2023-05-10T05:52:13;12.30;99.90
26947;DHT22;14501;52.282;10.560;2023-05-10T05:54:39;12.30;99.90
26947;DHT22;14501;52.282;10.560;2023-05-10T05:57:05;12.40;99.90
26947;DHT22;14501;52.282;10.560;2023-05-10T05:59:30;12.40;99.90
26947;DHT22;14501;52.282;10.560;2023-05-10T06:01:56;12.60;99.90
26947;DHT22;14501;52.282;10.560;2023-05-10T06:04:22;12.60;99.90
26947;DHT22;14501;52.282;10.560;2023-05-10T06:06:47;12.60;99.90
26947;DHT22;14501;52.282;10.560;2023-05-10T06:09:14;12.60;99.90
26947;DHT22;14501;52.282;10.560;2023-05-10T06:11:40;12.50;99.90
26947;DHT22;14501;52.282;10.560;2023-05-10T06:14:05;12.60;99.90
26947;DHT22;14501;52.282;10.560;2023-05-10T06:16:33;12.60;99.90
26947;DHT22;14501;52.282;10.560;2023-05-10T06:18:59;12.60;99.90
26947;DHT22;14501;52.282;10.560;2023-05-10T06:21:25;12.60;99.90
26947;DHT22;14501;52.282;10.560;2023-05-10T06:23:50;12.70;99.90
26947;DHT22;14501;52.282;10.560;2023-05-10T06:26:16;12.80;99.90
26947;DHT22;14501;52.282;10.560;2023-05-10T06:28:42;12.90;99.90
26947;DHT22;14501;52.282;10.560;2023-05-10T06:31:08;13.20;99.90
26947;DHT22;14501;52.282;10.560;2023-05-10T06:33:33;13.30;99.90
26947;DHT22;14501;52.282;10.560;2023-05-10T06:35:59;13.50;99.90
26947;DHT22;14501;52.282;10.560;2023-05-10T06:38:25;13.70;99.90
26947;DHT22;14501;52.282;10.560;2023-05-10T06:40:51;14.00;99.90
26947;DHT22;14501;52.282;10.560;2023-05-10T06:43:17;14.10;99.90
26947;DHT22;14501;52.282;10.560;2023-05-10T06:45:43;14.10;99.90
26947;DHT22;14501;52.282;10.560;2023-05-10T06:48:09;14.10;99.90
26947;DHT22;14501;52.282;10.560;2023-05-10T06:50:35;13.80;99.90
26947;DHT22;14501;52.282;10.560;2023-05-10T06:53:01;13.90;99.90
26947;DHT22;14501;52.282;10.560;2023-05-10T06:55:29;13.70;99.90
26947;DHT22;14501;52.282;10.560;2023-05-10T06:57:55;13.50;99.90
26947;DHT22;14501;52.282;10.560;2023-05-10T07:00:21;13.20;99.90
26947;DHT22;14501;52.282;10.560;2023-05-10T07:02:47;13.20;99.90
26947;DHT22;14501;52.282;10.560;2023-05-10T07:05:13;13.20;99.90
26947;DHT22;14501;52.282;10.560;2023-05-10T07:07:39;13.00;99.90
26947;DHT22;14501;52.282;10.560;2023-05-10T07:10:05;12.80;99.90
26947;DHT22;14501;52.282;10.560;2023-05-10T07:12:32;12.60;99.90
26947;DHT22;14501;52.282;10.560;2023-05-10T07:14:58;12.50;99.90
26947;DHT22;14501;52.282;10.560;2023-05-10T07:17:23;12.40;99.90
26947;DHT22;14501;52.282;10.560;2023-05-10T07:19:49;12.40;99.90
26947;DHT22;14501;52.282;10.560;2023-05-10T07:22:15;12.40;99.90
26947;DHT22;14501;52.282;10.560;2023-05-10T07:24:42;12.40;99.90
26947;DHT22;14501;52.282;10.560;2023-05-10T07:27:08;12.50;99.90
26947;DHT22;14501;52.282;10.560;2023-05-10T07:29:34;12.50;99.90
26947;DHT22;14501;52.282;10.560;2023-05-10T07:32:00;12.60;99.90
26947;DHT22;14501;52.282;10.560;2023-05-10T07:34:26;12.70;99.90
26947;DHT22;14501;52.282;10.560;2023-05-10T07:36:52;12.60;99.90
26947;DHT22;14501;52.282;10.560;2023-05-10T07:39:18;12.60;99.90
26947;DHT22;14501;52.282;10.560;2023-05-10T07:41:44;12.70;99.90
26947;DHT22;14501;52.282;10.560;2023-05-10T07:44:09;12.70;99.90
26947;DHT22;14501;52.282;10.560;2023-05-10T07:46:35;12.80;99.90
26947;DHT22;14501;52.282;10.560;2023-05-10T07:49:00;12.90;99.90
26947;DHT22;14501;52.282;10.560;2023-05-10T07:51:26;13.10;99.90
26947;DHT22;14501;52.282;10.560;2023-05-10T07:53:53;13.20;99.90
26947;DHT22;14501;52.282;10.560;2023-05-10T07:56:25;13.20;99.90
26947;DHT22;14501;52.282;10.560;2023-05-10T07:58:53;13.20;99.90
26947;DHT22;14501;52.282;10.560;2023-05-10T08:01:19;13.20;99.90
26947;DHT22;14501;52.282;10.560;2023-05-10T08:03:45;13.20;99.90
26947;DHT22;14501;52.282;10.560;2023-05-10T08:06:10;13.30;99.90
26947;DHT22;14501;52.282;10.560;2023-05-10T08:08:36;13.30;99.90
26947;DHT22;14501;52.282;10.560;2023-05-10T08:11:03;13.50;99.90
26947;DHT22;14501;52.282;10.560;2023-05-10T08:13:28;13.60;99.90
26947;DHT22;14501;52.282;10.560;2023-05-10T08:15:54;13.70;99.90
26947;DHT22;14501;52.282;10.560;2023-05-10T08:18:19;13.70;99.90
26947;DHT22;14501;52.282;10.560;2023-05-10T08:20:45;13.70;99.90
26947;DHT22;14501;52.282;10.560;2023-05-10T08:23:14;13.70;99.90
26947;DHT22;14501;52.282;10.560;2023-05-10T08:25:40;13.70;99.90
26947;DHT22;14501;52.282;10.560;2023-05-10T08:28:05;13.60;99.90
26947;DHT22;14501;52.282;10.560;2023-05-10T08:30:31;13.40;99.90
26947;DHT22;14501;52.282;10.560;2023-05-10T08:32:57;13.40;99.90
26947;DHT22;14501;52.282;10.560;2023-05-10T08:35:22;13.30;99.90
26947;DHT22;14501;52.282;10.560;2023-05-10T08:37:48;13.20;99.90
26947;DHT22;14501;52.282;10.560;2023-05-10T08:40:14;13.10;99.90
26947;DHT22;14501;52.282;10.560;2023-05-10T08:42:44;13.10;99.90
26947;DHT22;14501;52.282;10.560;2023-05-10T08:45:13;13.10;99.90
26947;DHT22;14501;52.282;10.560;2023-05-10T08:47:41;13.20;99.90
26947;DHT22;14501;52.282;10.560;2023-05-10T08:50:07;13.30;99.90
26947;DHT22;14501;52.282;10.560;2023-05-10T08:52:33;13.30;99.90
26947;DHT22;14501;52.282;10.560;2023-05-10T08:55:00;13.20;99.90
26947;DHT22;14501;52.282;10.560;2023-05-10T08:57:26;13.20;99.90
26947;DHT22;14501;52.282;10.560;2023-05-10T08:59:52;13.20;99.90
26947;DHT22;14501;52.282;10.560;2023-05-10T09:02:18;13.20;99.90
26947;DHT22;14501;52.282;10.560;2023-05-10T09:04:45;13.30;99.90
26947;DHT22;14501;52.282;10.560;2023-05-10T09:07:11;13.40;99.90
26947;DHT22;14501;52.282;10.560;2023-05-10T09:09:37;13.50;99.90
26947;DHT22;14501;52.282;10.560;2023-05-10T09:12:03;13.60;99.90
26947;DHT22;14501;52.282;10.560;2023-05-10T09:14:30;13.60;99.90
26947;DHT22;14501;52.282;10.560;2023-05-10T09:16:56;13.60;99.90
26947;DHT22;14501;52.282;10.560;2023-05-10T09:19:22;13.80;99.90
26947;DHT22;14501;52.282;10.560;2023-05-10T09:21:48;13.90;99.90
26947;DHT22;14501;52.282;10.560;2023-05-10T09:24:14;13.90;99.90
26947;DHT22;14501;52.282;10.560;2023-05-10T09:26:47;13.90;99.90
26947;DHT22;14501;52.282;10.560;2023-05-10T09:29:16;13.90;99.90
26947;DHT22;14501;52.282;10.560;2023-05-10T09:31:49;13.90;99.90
26947;DHT22;14501;52.282;10.560;2023-05-10T09:34:31;14.00;99.90
26947;DHT22;14501;52.282;10.560;2023-05-10T09:36:59;14.00;99.90
26947;DHT22;14501;52.282;10.560;2023-05-10T09:39:35;13.90;99.90
26947;DHT22;14501;52.282;10.560;2023-05-10T09:42:03;13.90;99.90
26947;DHT22;14501;52.282;10.560;2023-05-10T09:44:31;13.80;99.90
26947;DHT22;14501;52.282;10.560;2023-05-10T09:46:56;13.80;99.90
26947;DHT22;14501;52.282;10.560;2023-05-10T09:49:22;13.80;99.90
26947;DHT22;14501;52.282;10.560;2023-05-10T09:52:02;13.80;99.90
26947;DHT22;14501;52.282;10.560;2023-05-10T09:54:28;13.80;99.90
26947;DHT22;14501;52.282;10.560;2023-05-10T09:56:54;13.90;99.90
26947;DHT22;14501;52.282;10.560;2023-05-10T09:59:20;14.00;99.90
26947;DHT22;14501;52.282;10.560;2023-05-10T10:01:50;14.20;99.90
26947;DHT22;14501;52.282;10.560;2023-05-10T10:04:28;14.30;99.90
26947;DHT22;14501;52.282;10.560;2023-05-10T10:10:22;14.50;99.90
26947;DHT22;14501;52.282;10.560;2023-05-10T10:12:48;14.60;99.90
26947;DHT22;14501;52.282;10.560;2023-05-10T10:15:13;14.70;99.90
26947;DHT22;14501;52.282;10.560;2023-05-10T10:17:39;14.70;99.90
26947;DHT22;14501;52.282;10.560;2023-05-10T10:20:06;14.90;99.90
26947;DHT22;14501;52.282;10.560;2023-05-10T10:22:33;15.00;99.90
26947;DHT22;14501;52.282;10.560;2023-05-10T10:24:58;15.20;99.90
26947;DHT22;14501;52.282;10.560;2023-05-10T10:27:33;15.60;99.90
26947;DHT22;14501;52.282;10.560;2023-05-10T10:35:45;15.20;99.90
26947;DHT22;14501;52.282;10.560;2023-05-10T10:40:29;15.00;99.90
26947;DHT22;14501;52.282;10.560;2023-05-10T10:42:56;14.90;99.90
26947;DHT22;14501;52.282;10.560;2023-05-10T10:45:23;14.70;99.90
26947;DHT22;14501;52.282;10.560;2023-05-10T10:48:19;14.70;99.90
26947;DHT22;14501;52.282;10.560;2023-05-10T10:50:46;14.80;99.90
26947;DHT22;14501;52.282;10.560;2023-05-10T10:53:12;14.90;99.90
26947;DHT22;14501;52.282;10.560;2023-05-10T10:55:46;14.20;99.90
26947;DHT22;14501;52.282;10.560;2023-05-10T10:58:29;14.90;99.90
26947;DHT22;14501;52.282;10.560;2023-05-10T11:01:10;15.00;99.90
26947;DHT22;14501;52.282;10.560;2023-05-10T11:05:58;15.00;99.90
26947;DHT22;14501;52.282;10.560;2023-05-10T11:08:31;15.40;99.90
26947;DHT22;14501;52.282;10.560;2023-05-10T11:13:39;15.60;99.90
26947;DHT22;14501;52.282;10.560;2023-05-10T11:16:16;15.60;99.90
26947;DHT22;14501;52.282;10.560;2023-05-10T11:19:03;15.60;99.90
26947;DHT22;14501;52.282;10.560;2023-05-10T11:21:30;15.60;99.90
26947;DHT22;14501;52.282;10.560;2023-05-10T11:23:57;15.50;99.90
26947;DHT22;14501;52.282;10.560;2023-05-10T11:26:25;15.50;99.90
26947;DHT22;14501;52.282;10.560;2023-05-10T11:28:53;15.40;99.90
26947;DHT22;14501;52.282;10.560;2023-05-10T11:31:23;15.50;99.90
26947;DHT22;14501;52.282;10.560;2023-05-10T11:33:57;15.60;99.90
26947;DHT22;14501;52.282;10.560;2023-05-10T11:36:27;15.90;99.90
26947;DHT22;14501;52.282;10.560;2023-05-10T11:38:54;16.20;99.90
26947;DHT22;14501;52.282;10.560;2023-05-10T11:41:21;16.30;99.90
26947;DHT22;14501;52.282;10.560;2023-05-10T11:43:50;16.50;99.90
26947;DHT22;14501;52.282;10.560;2023-05-10T11:46:20;16.70;99.90
26947;DHT22;14501;52.282;10.560;2023-05-10T11:48:48;16.80;99.90
26947;DHT22;14501;52.282;10.560;2023-05-10T11:51:14;17.00;99.90
26947;DHT22;14501;52.282;10.560;2023-05-10T11:53:40;17.00;99.90
26947;DHT22;14501;52.282;10.560;2023-05-10T11:56:07;17.10;99.90
26947;DHT22;14501;52.282;10.560;2023-05-10T11:58:34;17.20;99.90
26947;DHT22;14501;52.282;10.560;2023-05-10T12:01:00;17.20;99.90
26947;DHT22;14501;52.282;10.560;2023-05-10T12:03:27;17.10;99.90
26947;DHT22;14501;52.282;10.560;2023-05-10T12:05:54;17.20;99.90
26947;DHT22;14501;52.282;10.560;2023-05-10T12:08:22;17.20;99.90
26947;DHT22;14501;52.282;10.560;2023-05-10T12:10:48;17.20;99.90
26947;DHT22;14501;52.282;10.560;2023-05-10T12:13:14;17.60;99.90
26947;DHT22;14501;52.282;10.560;2023-05-10T12:15:41;17.80;99.90
26947;DHT22;14501;52.282;10.560;2023-05-10T12:18:11;18.30;99.90
26947;DHT22;14501;52.282;10.560;2023-05-10T12:20:37;18.30;99.90
26947;DHT22;14501;52.282;10.560;2023-05-10T12:23:03;18.50;99.90
26947;DHT22;14501;52.282;10.560;2023-05-10T12:25:33;18.50;99.90
26947;DHT22;14501;52.282;10.560;2023-05-10T12:28:02;18.60;99.90
26947;DHT22;14501;52.282;10.560;2023-05-10T12:30:33;18.70;99.90
26947;DHT22;14501;52.282;10.560;2023-05-10T12:33:09;18.90;99.90
26947;DHT22;14501;52.282;10.560;2023-05-10T12:35:53;19.10;99.90
26947;DHT22;14501;52.282;10.560;2023-05-10T12:40:50;19.40;99.90
26947;DHT22;14501;52.282;10.560;2023-05-10T12:43:16;19.30;99.90
26947;DHT22;14501;52.282;10.560;2023-05-10T12:45:41;19.60;99.90
26947;DHT22;14501;52.282;10.560;2023-05-10T12:48:07;20.00;99.90
26947;DHT22;14501;52.282;10.560;2023-05-10T12:50:33;20.00;99.90
26947;DHT22;14501;52.282;10.560;2023-05-10T12:52:58;20.30;99.90
26947;DHT22;14501;52.282;10.560;2023-05-10T12:55:24;20.30;99.90
26947;DHT22;14501;52.282;10.560;2023-05-10T12:57:49;20.50;99.90
26947;DHT22;14501;52.282;10.560;2023-05-10T13:00:15;20.60;99.90
26947;DHT22;14501;52.282;10.560;2023-05-10T13:02:41;20.60;99.90
26947;DHT22;14501;52.282;10.560;2023-05-10T13:05:07;20.60;99.90
26947;DHT22;14501;52.282;10.560;2023-05-10T13:07:32;20.40;99.90
26947;DHT22;14501;52.282;10.560;2023-05-10T13:09:58;20.30;99.90
26947;DHT22;14501;52.282;10.560;2023-05-10T13:12:24;20.40;99.90
26947;DHT22;14501;52.282;10.560;2023-05-10T13:14:49;20.10;99.90
26947;DHT22;14501;52.282;10.560;2023-05-10T13:17:15;20.10;99.90
26947;DHT22;14501;52.282;10.560;2023-05-10T13:19:40;20.30;99.90
26947;DHT22;14501;52.282;10.560;2023-05-10T13:22:06;20.20;99.90
26947;DHT22;14501;52.282;10.560;2023-05-10T13:24:32;20.40;99.90
26947;DHT22;14501;52.282;10.560;2023-05-10T13:26:58;20.50;99.90
26947;DHT22;14501;52.282;10.560;2023-05-10T13:29:23;20.50;99.90
26947;DHT22;14501;52.282;10.560;2023-05-10T13:31:49;20.80;99.90
26947;DHT22;14501;52.282;10.560;2023-05-10T13:34:15;21.00;99.90
26947;DHT22;14501;52.282;10.560;2023-05-10T13:36:40;21.20;99.90
26947;DHT22;14501;52.282;10.560;2023-05-10T13:39:06;21.30;99.90
26947;DHT22;14501;52.282;10.560;2023-05-10T13:41:32;21.20;99.90
26947;DHT22;14501;52.282;10.560;2023-05-10T13:43:57;21.30;99.90
26947;DHT22;14501;52.282;10.560;2023-05-10T13:46:23;21.10;99.90
26947;DHT22;14501;52.282;10.560;2023-05-10T13:48:49;21.00;99.90
26947;DHT22;14501;52.282;10.560;2023-05-10T13:51:14;21.00;99.90
26947;DHT22;14501;52.282;10.560;2023-05-10T13:53:40;20.80;99.90
26947;DHT22;14501;52.282;10.560;2023-05-10T13:56:06;20.70;99.90
26947;DHT22;14501;52.282;10.560;2023-05-10T13:58:32;20.10;99.90
26947;DHT22;14501;52.282;10.560;2023-05-10T14:00:58;20.10;99.90
26947;DHT22;14501;52.282;10.560;2023-05-10T14:03:23;20.10;99.90
26947;DHT22;14501;52.282;10.560;2023-05-10T14:05:49;20.10;99.90
26947;DHT22;14501;52.282;10.560;2023-05-10T14:08:14;19.90;99.90
26947;DHT22;14501;52.282;10.560;2023-05-10T14:10:40;19.90;99.90
26947;DHT22;14501;52.282;10.560;2023-05-10T14:13:06;19.90;99.90
26947;DHT22;14501;52.282;10.560;2023-05-10T14:15:32;19.70;99.90
26947;DHT22;14501;52.282;10.560;2023-05-10T14:17:57;19.20;99.90
26947;DHT22;14501;52.282;10.560;2023-05-10T14:20:23;19.10;99.90
26947;DHT22;14501;52.282;10.560;2023-05-10T14:22:48;19.00;99.90
26947;DHT22;14501;52.282;10.560;2023-05-10T14:25:14;18.80;99.90
26947;DHT22;14501;52.282;10.560;2023-05-10T14:27:40;18.80;99.90
26947;DHT22;14501;52.282;10.560;2023-05-10T14:30:06;18.70;99.90
26947;DHT22;14501;52.282;10.560;2023-05-10T14:32:32;18.50;99.90
26947;DHT22;14501;52.282;10.560;2023-05-10T14:34:57;18.50;99.90
26947;DHT22;14501;52.282;10.560;2023-05-10T14:37:23;18.40;99.90
26947;DHT22;14501;52.282;10.560;2023-05-10T14:39:49;18.40;99.90
26947;DHT22;14501;52.282;10.560;2023-05-10T14:42:14;18.50;99.90
26947;DHT22;14501;52.282;10.560;2023-05-10T14:44:40;18.60;99.90
26947;DHT22;14501;52.282;10.560;2023-05-10T14:47:05;18.70;99.90
26947;DHT22;14501;52.282;10.560;2023-05-10T14:49:31;18.70;99.90
26947;DHT22;14501;52.282;10.560;2023-05-10T14:51:57;18.90;99.90
26947;DHT22;14501;52.282;10.560;2023-05-10T14:54:22;18.80;99.90
26947;DHT22;14501;52.282;10.560;2023-05-10T14:56:48;19.00;99.90
26947;DHT22;14501;52.282;10.560;2023-05-10T14:59:15;19.00;99.90
26947;DHT22;14501;52.282;10.560;2023-05-10T15:01:40;19.40;99.90
26947;DHT22;14501;52.282;10.560;2023-05-10T15:04:07;19.40;99.90
26947;DHT22;14501;52.282;10.560;2023-05-10T15:06:34;19.40;99.90
26947;DHT22;14501;52.282;10.560;2023-05-10T15:09:00;19.40;99.90
26947;DHT22;14501;52.282;10.560;2023-05-10T15:11:26;19.70;99.90
26947;DHT22;14501;52.282;10.560;2023-05-10T15:13:52;19.90;99.90
26947;DHT22;14501;52.282;10.560;2023-05-10T15:16:17;19.90;99.90
26947;DHT22;14501;52.282;10.560;2023-05-10T15:18:43;20.00;99.90
26947;DHT22;14501;52.282;10.560;2023-05-10T15:21:09;20.00;99.90
26947;DHT22;14501;52.282;10.560;2023-05-10T15:23:35;19.90;99.90
26947;DHT22;14501;52.282;10.560;2023-05-10T15:26:01;19.70;99.90
26947;DHT22;14501;52.282;10.560;2023-05-10T15:28:28;19.70;99.90
26947;DHT22;14501;52.282;10.560;2023-05-10T15:30:54;19.70;99.90
26947;DHT22;14501;52.282;10.560;2023-05-10T15:33:20;19.60;99.90
26947;DHT22;14501;52.282;10.560;2023-05-10T15:35:45;19.50;99.90
26947;DHT22;14501;52.282;10.560;2023-05-10T15:38:11;19.40;99.90
26947;DHT22;14501;52.282;10.560;2023-05-10T15:40:36;19.30;99.90
26947;DHT22;14501;52.282;10.560;2023-05-10T15:43:02;19.20;99.90
26947;DHT22;14501;52.282;10.560;2023-05-10T15:45:28;19.20;99.90
26947;DHT22;14501;52.282;10.560;2023-05-10T15:47:53;19.20;99.90